sensor_id;sensor_type;location;lat;lon;timestamp;pressure;altitude;pressure_sealevel;temperature;humidity
11487;BME280;10510;47.942;9.442;2023-08-21T00:00:43;95164.50;;;20.29;100.00
11487;BME280;10510;47.942;9.442;2023-08-21T00:02:44;95169.25;;;20.27;100.00
11487;BME280;10510;47.942;9.442;2023-08-21T00:04:44;95167.63;;;20.26;100.00
11487;BME280;10510;47.942;9.442;2023-08-21T00:06:44;95166.03;;;20.25;100.00
11487;BME280;10510;47.942;9.442;2023-08-21T00:08:44;95161.75;;;20.24;100.00
11487;BME280;10510;47.942;9.442;2023-08-21T00:10:45;95165.78;;;20.26;100.00
11487;BME280;10510;47.942;9.442;2023-08-21T00:12:45;95163.56;;;20.23;100.00
11487;BME280;10510;47.942;9.442;2023-08-21T00:14:45;95159.53;;;20.20;100.00
11487;BME280;10510;47.942;9.442;2023-08-21T00:16:46;95167.50;;;20.20;100.00
11487;BME280;10510;47.942;9.442;2023-08-21T00:18:46;95158.97;;;20.18;100.00
11487;BME280;10510;47.942;9.442;2023-08-21T00:20:47;95159.19;;;20.17;100.00
11487;BME280;10510;47.942;9.442;2023-08-21T00:22:47;95154.69;;;20.17;100.00
11487;BME280;10510;47.942;9.442;2023-08-21T00:24:47;95157.13;;;20.19;100.00
11487;BME280;10510;47.942;9.442;2023-08-21T00:26:47;95157.25;;;20.24;100.00
11487;BME280;10510;47.942;9.442;2023-08-21T00:28:48;95163.69;;;20.28;100.00
11487;BME280;10510;47.942;9.442;2023-08-21T00:30:48;95164.84;;;20.32;100.00
11487;BME280;10510;47.942;9.442;2023-08-21T00:32:48;95158.53;;;20.33;100.00
11487;BME280;10510;47.942;9.442;2023-08-21T00:34:48;95155.75;;;20.28;100.00
11487;BME280;10510;47.942;9.442;2023-08-21T00:36:49;95163.38;;;20.25;100.00
11487;BME280;10510;47.942;9.442;2023-08-21T00:38:49;95156.88;;;20.20;100.00
11487;BME280;10510;47.942;9.442;2023-08-21T00:40:50;95165.91;;;20.19;100.00
11487;BME280;10510;47.942;9.442;2023-08-21T00:42:50;95159.66;;;20.14;100.00
11487;BME280;10510;47.942;9.442;2023-08-21T00:44:50;95166.47;;;20.10;100.00
11487;BME280;10510;47.942;9.442;2023-08-21T00:46:51;95157.94;;;20.08;100.00
11487;BME280;10510;47.942;9.442;2023-08-21T00:48:52;95164.50;;;20.05;100.00
11487;BME280;10510;47.942;9.442;2023-08-21T00:50:52;95164.16;;;20.02;100.00
11487;BME280;10510;47.942;9.442;2023-08-21T00:52:53;95164.16;;;20.02;100.00
11487;BME280;10510;47.942;9.442;2023-08-21T00:54:54;95166.22;;;20.00;100.00
11487;BME280;10510;47.942;9.442;2023-08-21T00:56:55;95158.50;;;19.98;100.00
11487;BME280;10510;47.942;9.442;2023-08-21T00:58:56;95159.41;;;19.92;100.00
11487;BME280;10510;47.942;9.442;2023-08-21T01:00:56;95155.72;;;19.81;100.00
11487;BME280;10510;47.942;9.442;2023-08-21T01:02:58;95157.28;;;19.70;100.00
11487;BME280;10510;47.942;9.442;2023-08-21T01:04:58;95158.88;;;19.60;100.00
11487;BME280;10510;47.942;9.442;2023-08-21T01:06:58;95160.78;;;19.52;100.00
11487;BME280;10510;47.942;9.442;2023-08-21T01:09:08;95155.59;;;19.46;100.00
11487;BME280;10510;47.942;9.442;2023-08-21T01:11:18;95158.09;;;19.41;100.00
11487;BME280;10510;47.942;9.442;2023-08-21T01:13:34;95155.34;;;19.36;100.00
11487;BME280;10510;47.942;9.442;2023-08-21T01:15:40;95157.84;;;19.31;100.00
11487;BME280;10510;47.942;9.442;2023-08-21T01:17:43;95157.72;;;19.25;100.00
11487;BME280;10510;47.942;9.442;2023-08-21T01:19:48;95157.34;;;19.22;100.00
11487;BME280;10510;47.942;9.442;2023-08-21T01:21:50;95157.13;;;19.23;100.00
11487;BME280;10510;47.942;9.442;2023-08-21T01:23:50;95161.97;;;19.26;100.00
11487;BME280;10510;47.942;9.442;2023-08-21T01:25:51;95164.75;;;19.32;100.00
11487;BME280;10510;47.942;9.442;2023-08-21T01:27:51;95167.75;;;19.35;100.00
11487;BME280;10510;47.942;9.442;2023-08-21T01:29:51;95160.75;;;19.41;100.00
11487;BME280;10510;47.942;9.442;2023-08-21T01:32:23;95165.38;;;19.45;100.00
11487;BME280;10510;47.942;9.442;2023-08-21T01:34:28;95167.59;;;19.48;100.00
11487;BME280;10510;47.942;9.442;2023-08-21T01:36:30;95168.97;;;19.51;100.00
11487;BME280;10510;47.942;9.442;2023-08-21T01:38:33;95164.47;;;19.51;100.00
11487;BME280;10510;47.942;9.442;2023-08-21T01:40:33;95163.69;;;19.51;100.00
11487;BME280;10510;47.942;9.442;2023-08-21T01:42:34;95171.84;;;19.49;100.00
11487;BME280;10510;47.942;9.442;2023-08-21T01:44:34;95167.00;;;19.46;100.00
11487;BME280;10510;47.942;9.442;2023-08-21T01:46:35;95162.94;;;19.44;100.00
11487;BME280;10510;47.942;9.442;2023-08-21T01:48:35;95160.53;;;19.42;100.00
11487;BME280;10510;47.942;9.442;2023-08-21T01:50:35;95157.28;;;19.40;100.00
11487;BME280;10510;47.942;9.442;2023-08-21T01:52:36;95158.34;;;19.39;100.00
11487;BME280;10510;47.942;9.442;2023-08-21T01:54:36;95158.56;;;19.38;100.00
11487;BME280;10510;47.942;9.442;2023-08-21T01:56:36;95158.34;;;19.39;100.00
11487;BME280;10510;47.942;9.442;2023-08-21T01:58:36;95154.88;;;19.39;100.00
11487;BME280;10510;47.942;9.442;2023-08-21T02:00:37;95162.47;;;19.35;100.00
11487;BME280;10510;47.942;9.442;2023-08-21T02:02:37;95153.34;;;19.31;100.00
11487;BME280;10510;47.942;9.442;2023-08-21T02:04:37;95149.75;;;19.25;100.00
11487;BME280;10510;47.942;9.442;2023-08-21T02:06:37;95157.81;;;19.19;100.00
11487;BME280;10510;47.942;9.442;2023-08-21T02:08:38;95162.81;;;19.09;100.00
11487;BME280;10510;47.942;9.442;2023-08-21T02:10:47;95158.28;;;18.97;100.00
11487;BME280;10510;47.942;9.442;2023-08-21T02:12:48;95163.44;;;18.92;100.00
11487;BME280;10510;47.942;9.442;2023-08-21T02:14:49;95161.22;;;18.89;100.00
11487;BME280;10510;47.942;9.442;2023-08-21T02:16:49;95160.03;;;18.85;100.00
11487;BME280;10510;47.942;9.442;2023-08-21T02:18:49;95161.09;;;18.84;100.00
11487;BME280;10510;47.942;9.442;2023-08-21T02:20:49;95161.53;;;18.81;100.00
11487;BME280;10510;47.942;9.442;2023-08-21T02:22:50;95161.72;;;18.79;100.00
11487;BME280;10510;47.942;9.442;2023-08-21T02:24:50;95158.28;;;18.79;100.00
11487;BME280;10510;47.942;9.442;2023-08-21T02:26:50;95158.16;;;18.74;100.00
11487;BME280;10510;47.942;9.442;2023-08-21T02:28:50;95165.06;;;18.75;100.00
11487;BME280;10510;47.942;9.442;2023-08-21T02:30:51;95169.31;;;18.76;100.00
11487;BME280;10510;47.942;9.442;2023-08-21T02:32:54;95170.94;;;18.77;100.00
11487;BME280;10510;47.942;9.442;2023-08-21T02:34:54;95168.31;;;18.77;100.00
11487;BME280;10510;47.942;9.442;2023-08-21T02:36:55;95175.22;;;18.78;100.00
11487;BME280;10510;47.942;9.442;2023-08-21T02:38:55;95167.47;;;18.76;100.00
11487;BME280;10510;47.942;9.442;2023-08-21T02:40:55;95161.63;;;18.74;100.00
11487;BME280;10510;47.942;9.442;2023-08-21T02:42:57;95160.81;;;18.74;100.00
11487;BME280;10510;47.942;9.442;2023-08-21T02:44:57;95167.91;;;18.73;100.00
11487;BME280;10510;47.942;9.442;2023-08-21T02:46:58;95165.06;;;18.75;100.00
11487;BME280;10510;47.942;9.442;2023-08-21T02:48:58;95167.72;;;18.75;100.00
11487;BME280;10510;47.942;9.442;2023-08-21T02:50:58;95161.63;;;18.74;100.00
11487;BME280;10510;47.942;9.442;2023-08-21T02:52:59;95163.63;;;18.72;100.00
11487;BME280;10510;47.942;9.442;2023-08-21T02:54:59;95167.91;;;18.73;100.00
11487;BME280;10510;47.942;9.442;2023-08-21T02:57:00;95165.88;;;18.75;100.00
11487;BME280;10510;47.942;9.442;2023-08-21T02:59:00;95173.00;;;18.75;100.00
11487;BME280;10510;47.942;9.442;2023-08-21T03:01:00;95174.22;;;18.72;100.00
11487;BME280;10510;47.942;9.442;2023-08-21T03:03:01;95167.75;;;18.68;100.00
11487;BME280;10510;47.942;9.442;2023-08-21T03:05:01;95176.16;;;18.65;100.00
11487;BME280;10510;47.942;9.442;2023-08-21T03:07:01;95167.59;;;18.63;100.00
11487;BME280;10510;47.942;9.442;2023-08-21T03:09:02;95178.63;;;18.60;100.00
11487;BME280;10510;47.942;9.442;2023-08-21T03:11:03;95170.34;;;18.56;100.00
11487;BME280;10510;47.942;9.442;2023-08-21T03:13:03;95177.88;;;18.53;100.00
11487;BME280;10510;47.942;9.442;2023-08-21T03:15:04;95177.31;;;18.51;100.00
11487;BME280;10510;47.942;9.442;2023-08-21T03:17:04;95179.97;;;18.51;100.00
11487;BME280;10510;47.942;9.442;2023-08-21T03:19:04;95179.72;;;18.52;100.00
11487;BME280;10510;47.942;9.442;2023-08-21T03:21:05;95172.16;;;18.56;100.00
11487;BME280;10510;47.942;9.442;2023-08-21T03:23:05;95173.78;;;18.57;100.00
11487;BME280;10510;47.942;9.442;2023-08-21T03:25:06;95173.78;;;18.57;100.00
11487;BME280;10510;47.942;9.442;2023-08-21T03:27:06;95172.97;;;18.56;100.00
11487;BME280;10510;47.942;9.442;2023-08-21T03:29:07;95176.28;;;18.52;100.00
11487;BME280;10510;47.942;9.442;2023-08-21T03:31:07;95180.59;;;18.46;100.00
11487;BME280;10510;47.942;9.442;2023-08-21T03:33:07;95175.59;;;18.38;100.00
11487;BME280;10510;47.942;9.442;2023-08-21T03:35:08;95175.00;;;18.36;100.00
11487;BME280;10510;47.942;9.442;2023-08-21T03:37:09;95177.88;;;18.34;100.00
11487;BME280;10510;47.942;9.442;2023-08-21T03:39:09;95172.38;;;18.36;100.00
11487;BME280;10510;47.942;9.442;2023-08-21T03:41:09;95177.66;;;18.36;100.00
11487;BME280;10510;47.942;9.442;2023-08-21T03:43:10;95169.72;;;18.36;100.00
11487;BME280;10510;47.942;9.442;2023-08-21T03:45:10;95172.56;;;18.34;100.00
11487;BME280;10510;47.942;9.442;2023-08-21T03:47:11;95179.72;;;18.34;100.00
11487;BME280;10510;47.942;9.442;2023-08-21T03:49:13;95181.53;;;18.33;100.00
11487;BME280;10510;47.942;9.442;2023-08-21T03:51:14;95177.88;;;18.34;100.00
11487;BME280;10510;47.942;9.442;2023-08-21T03:53:14;95178.09;;;18.33;100.00
11487;BME280;10510;47.942;9.442;2023-08-21T03:55:14;95179.09;;;18.32;100.00
11487;BME280;10510;47.942;9.442;2023-08-21T03:57:14;95180.75;;;18.33;100.00
11487;BME280;10510;47.942;9.442;2023-08-21T03:59:15;95182.34;;;18.34;100.00
11487;BME280;10510;47.942;9.442;2023-08-21T04:01:15;95184.56;;;18.37;100.00
11487;BME280;10510;47.942;9.442;2023-08-21T04:03:16;95189.41;;;18.40;100.00
11487;BME280;10510;47.942;9.442;2023-08-21T04:05:16;95186.34;;;18.43;100.00
11487;BME280;10510;47.942;9.442;2023-08-21T04:07:16;95183.69;;;18.43;100.00
11487;BME280;10510;47.942;9.442;2023-08-21T04:09:16;95182.66;;;18.44;100.00
11487;BME280;10510;47.942;9.442;2023-08-21T04:11:17;95186.34;;;18.43;100.00
11487;BME280;10510;47.942;9.442;2023-08-21T04:13:17;95187.63;;;18.34;100.00
11487;BME280;10510;47.942;9.442;2023-08-21T04:15:17;95185.06;;;18.27;100.00
11487;BME280;10510;47.942;9.442;2023-08-21T04:17:22;95187.97;;;18.19;100.00
11487;BME280;10510;47.942;9.442;2023-08-21T04:19:22;95188.63;;;18.14;100.00
11487;BME280;10510;47.942;9.442;2023-08-21T04:21:22;95187.63;;;18.15;100.00
11487;BME280;10510;47.942;9.442;2023-08-21T04:23:23;95191.88;;;18.16;100.00
11487;BME280;10510;47.942;9.442;2023-08-21T04:25:23;95185.53;;;18.17;100.00
11487;BME280;10510;47.942;9.442;2023-08-21T04:27:23;95194.69;;;18.22;100.00
11487;BME280;10510;47.942;9.442;2023-08-21T04:29:23;95191.00;;;18.23;100.00
11487;BME280;10510;47.942;9.442;2023-08-21T04:31:24;95186.31;;;18.25;100.00
11487;BME280;10510;47.942;9.442;2023-08-21T04:33:28;95187.47;;;18.29;100.00
11487;BME280;10510;47.942;9.442;2023-08-21T04:35:28;95185.88;;;18.28;100.00
11487;BME280;10510;47.942;9.442;2023-08-21T04:37:29;95188.72;;;18.26;100.00
11487;BME280;10510;47.942;9.442;2023-08-21T04:39:29;95188.50;;;18.28;100.00
11487;BME280;10510;47.942;9.442;2023-08-21T04:41:29;95192.56;;;18.30;100.00
11487;BME280;10510;47.942;9.442;2023-08-21T04:43:29;95189.69;;;18.32;100.00
11487;BME280;10510;47.942;9.442;2023-08-21T04:45:30;95181.53;;;18.33;100.00
11487;BME280;10510;47.942;9.442;2023-08-21T04:47:30;95184.56;;;18.37;100.00
11487;BME280;10510;47.942;9.442;2023-08-21T04:49:30;95191.03;;;18.41;100.00
11487;BME280;10510;47.942;9.442;2023-08-21T04:51:30;95184.28;;;18.45;100.00
11487;BME280;10510;47.942;9.442;2023-08-21T04:53:31;95193.38;;;18.49;100.00
11487;BME280;10510;47.942;9.442;2023-08-21T04:55:31;95189.75;;;18.50;100.00
11487;BME280;10510;47.942;9.442;2023-08-21T04:57:31;95188.25;;;18.54;100.00
11487;BME280;10510;47.942;9.442;2023-08-21T04:59:32;95195.16;;;18.55;100.00
11487;BME280;10510;47.942;9.442;2023-08-21T05:01:32;95195.75;;;18.57;100.00
11487;BME280;10510;47.942;9.442;2023-08-21T05:03:32;95199.56;;;18.61;100.00
11487;BME280;10510;47.942;9.442;2023-08-21T05:05:32;95201.78;;;18.65;100.00
11487;BME280;10510;47.942;9.442;2023-08-21T05:07:34;95203.78;;;18.69;100.00
11487;BME280;10510;47.942;9.442;2023-08-21T05:09:34;95193.16;;;18.76;100.00
11487;BME280;10510;47.942;9.442;2023-08-21T05:11:35;95207.94;;;18.83;100.00
11487;BME280;10510;47.942;9.442;2023-08-21T05:13:35;95207.25;;;18.88;100.00
11487;BME280;10510;47.942;9.442;2023-08-21T05:15:35;95214.75;;;18.91;100.00
11487;BME280;10510;47.942;9.442;2023-08-21T05:17:36;95214.09;;;18.96;100.00
11487;BME280;10510;47.942;9.442;2023-08-21T05:19:36;95226.75;;;18.94;100.00
11487;BME280;10510;47.942;9.442;2023-08-21T05:21:36;95217.00;;;18.94;100.00
11487;BME280;10510;47.942;9.442;2023-08-21T05:23:36;95216.91;;;19.01;100.00
11487;BME280;10510;47.942;9.442;2023-08-21T05:25:37;95219.25;;;19.09;100.00
11487;BME280;10510;47.942;9.442;2023-08-21T05:27:37;95221.59;;;19.17;100.00
11487;BME280;10510;47.942;9.442;2023-08-21T05:29:37;95219.31;;;19.21;100.00
11487;BME280;10510;47.942;9.442;2023-08-21T05:31:38;95219.69;;;19.24;100.00
11487;BME280;10510;47.942;9.442;2023-08-21T05:33:38;95224.69;;;19.33;100.00
11487;BME280;10510;47.942;9.442;2023-08-21T05:35:39;95221.50;;;19.42;100.00
11487;BME280;10510;47.942;9.442;2023-08-21T05:37:39;95225.31;;;19.46;100.00
11487;BME280;10510;47.942;9.442;2023-08-21T05:39:39;95225.44;;;19.51;100.00
11487;BME280;10510;47.942;9.442;2023-08-21T05:41:39;95228.81;;;19.59;100.00
11487;BME280;10510;47.942;9.442;2023-08-21T05:43:40;95225.31;;;19.65;100.00
11487;BME280;10510;47.942;9.442;2023-08-21T05:45:42;95232.81;;;19.68;100.00
11487;BME280;10510;47.942;9.442;2023-08-21T05:47:42;95232.13;;;19.72;100.00
11487;BME280;10510;47.942;9.442;2023-08-21T05:49:43;95233.06;;;19.78;100.00
11487;BME280;10510;47.942;9.442;2023-08-21T05:51:43;95228.84;;;19.89;100.00
11487;BME280;10510;47.942;9.442;2023-08-21T05:53:43;95228.41;;;20.04;100.00
11487;BME280;10510;47.942;9.442;2023-08-21T05:55:44;95230.84;;;20.17;100.00
11487;BME280;10510;47.942;9.442;2023-08-21T05:57:44;95230.97;;;20.34;100.00
11487;BME280;10510;47.942;9.442;2023-08-21T05:59:46;95236.78;;;20.54;100.00
11487;BME280;10510;47.942;9.442;2023-08-21T06:01:46;95234.13;;;20.66;100.00
11487;BME280;10510;47.942;9.442;2023-08-21T06:03:46;95232.16;;;20.73;100.00
11487;BME280;10510;47.942;9.442;2023-08-21T06:05:47;95239.31;;;20.84;100.00
11487;BME280;10510;47.942;9.442;2023-08-21T06:07:47;95246.59;;;20.89;100.00
11487;BME280;10510;47.942;9.442;2023-08-21T06:09:48;95239.75;;;20.93;100.00
11487;BME280;10510;47.942;9.442;2023-08-21T06:11:48;95244.47;;;21.03;100.00
11487;BME280;10510;47.942;9.442;2023-08-21T06:13:48;95245.50;;;21.14;100.00
11487;BME280;10510;47.942;9.442;2023-08-21T06:15:48;95243.28;;;21.22;100.00
11487;BME280;10510;47.942;9.442;2023-08-21T06:17:49;95239.09;;;21.26;100.00
11487;BME280;10510;47.942;9.442;2023-08-21T06:19:49;95246.84;;;21.28;100.00
11487;BME280;10510;47.942;9.442;2023-08-21T06:21:49;95248.34;;;21.36;100.00
11487;BME280;10510;47.942;9.442;2023-08-21T06:23:50;95251.47;;;21.44;100.00
11487;BME280;10510;47.942;9.442;2023-08-21T06:25:50;95243.06;;;21.64;100.00
11487;BME280;10510;47.942;9.442;2023-08-21T06:27:51;95248.81;;;21.73;100.00
11487;BME280;10510;47.942;9.442;2023-08-21T06:29:51;95258.50;;;21.79;100.00
11487;BME280;10510;47.942;9.442;2023-08-21T06:31:51;95260.44;;;21.84;100.00
11487;BME280;10510;47.942;9.442;2023-08-21T06:33:51;95248.03;;;21.89;100.00
11487;BME280;10510;47.942;9.442;2023-08-21T06:35:52;95260.28;;;21.90;100.00
11487;BME280;10510;47.942;9.442;2023-08-21T06:37:52;95252.47;;;22.29;100.00
11487;BME280;10510;47.942;9.442;2023-08-21T06:39:54;95254.72;;;22.37;100.00
11487;BME280;10510;47.942;9.442;2023-08-21T06:41:54;95259.03;;;22.38;100.00
11487;BME280;10510;47.942;9.442;2023-08-21T06:43:55;95252.28;;;22.53;100.00
11487;BME280;10510;47.942;9.442;2023-08-21T06:45:56;95251.22;;;22.71;100.00
11487;BME280;10510;47.942;9.442;2023-08-21T06:47:56;95252.75;;;22.83;100.00
11487;BME280;10510;47.942;9.442;2023-08-21T06:49:56;95262.13;;;22.86;100.00
11487;BME280;10510;47.942;9.442;2023-08-21T06:51:56;95261.31;;;22.85;100.00
11487;BME280;10510;47.942;9.442;2023-08-21T06:53:57;95262.75;;;23.10;100.00
11487;BME280;10510;47.942;9.442;2023-08-21T06:55:57;95258.91;;;23.23;100.00
11487;BME280;10510;47.942;9.442;2023-08-21T06:57:57;95252.59;;;23.51;100.00
11487;BME280;10510;47.942;9.442;2023-08-21T06:59:58;95254.13;;;23.69;100.00
11487;BME280;10510;47.942;9.442;2023-08-21T07:01:58;95254.41;;;23.94;100.00
11487;BME280;10510;47.942;9.442;2023-08-21T07:03:58;95254.66;;;23.93;100.00
11487;BME280;10510;47.942;9.442;2023-08-21T07:05:59;95244.03;;;23.98;100.00
11487;BME280;10510;47.942;9.442;2023-08-21T07:08:00;95253.94;;;24.02;100.00
11487;BME280;10510;47.942;9.442;2023-08-21T07:10:01;95253.25;;;24.12;100.00
11487;BME280;10510;47.942;9.442;2023-08-21T07:12:01;95249.56;;;24.18;100.00
11487;BME280;10510;47.942;9.442;2023-08-21T07:14:02;95245.66;;;24.31;100.00
11487;BME280;10510;47.942;9.442;2023-08-21T07:16:02;95251.69;;;24.48;100.00
11487;BME280;10510;47.942;9.442;2023-08-21T07:18:06;95258.97;;;24.58;100.00
11487;BME280;10510;47.942;9.442;2023-08-21T07:20:08;95252.13;;;24.73;100.00
11487;BME280;10510;47.942;9.442;2023-08-21T07:22:08;95250.66;;;24.92;100.00
11487;BME280;10510;47.942;9.442;2023-08-21T07:24:08;95251.34;;;25.14;100.00
11487;BME280;10510;47.942;9.442;2023-08-21T07:26:09;95259.66;;;25.18;100.00
11487;BME280;10510;47.942;9.442;2023-08-21T07:28:09;95256.19;;;25.23;100.00
11487;BME280;10510;47.942;9.442;2023-08-21T07:30:11;95261.34;;;26.28;100.00
11487;BME280;10510;47.942;9.442;2023-08-21T07:32:11;95257.22;;;28.37;100.00
11487;BME280;10510;47.942;9.442;2023-08-21T07:34:12;95256.84;;;30.03;100.00
11487;BME280;10510;47.942;9.442;2023-08-21T07:36:12;95257.19;;;31.47;100.00
11487;BME280;10510;47.942;9.442;2023-08-21T07:38:17;95255.22;;;32.61;100.00
11487;BME280;10510;47.942;9.442;2023-08-21T07:40:17;95251.53;;;33.42;100.00
11487;BME280;10510;47.942;9.442;2023-08-21T07:42:17;95255.97;;;33.86;100.00
11487;BME280;10510;47.942;9.442;2023-08-21T07:44:17;95257.13;;;34.37;100.00
11487;BME280;10510;47.942;9.442;2023-08-21T07:46:19;95255.19;;;34.81;100.00
11487;BME280;10510;47.942;9.442;2023-08-21T07:48:19;95260.09;;;34.97;100.00
11487;BME280;10510;47.942;9.442;2023-08-21T07:50:19;95257.69;;;35.21;100.00
11487;BME280;10510;47.942;9.442;2023-08-21T07:52:20;95251.91;;;35.61;100.00
11487;BME280;10510;47.942;9.442;2023-08-21T07:54:20;95249.22;;;35.82;100.00
11487;BME280;10510;47.942;9.442;2023-08-21T07:56:20;95250.75;;;36.22;100.00
11487;BME280;10510;47.942;9.442;2023-08-21T07:58:21;95259.81;;;36.47;100.00
11487;BME280;10510;47.942;9.442;2023-08-21T08:00:21;95254.00;;;36.36;100.00
11487;BME280;10510;47.942;9.442;2023-08-21T08:02:23;95256.72;;;36.36;100.00
11487;BME280;10510;47.942;9.442;2023-08-21T08:04:23;95249.06;;;36.50;100.00
11487;BME280;10510;47.942;9.442;2023-08-21T08:06:23;95252.78;;;36.67;100.00
11487;BME280;10510;47.942;9.442;2023-08-21T08:08:24;95256.31;;;36.67;100.00
11487;BME280;10510;47.942;9.442;2023-08-21T08:10:25;95251.22;;;36.45;100.00
11487;BME280;10510;47.942;9.442;2023-08-21T08:12:25;95257.84;;;36.35;100.00
11487;BME280;10510;47.942;9.442;2023-08-21T08:14:26;95251.75;;;36.17;100.00
11487;BME280;10510;47.942;9.442;2023-08-21T08:16:26;95250.81;;;36.34;100.00
11487;BME280;10510;47.942;9.442;2023-08-21T08:18:26;95252.47;;;36.26;100.00
11487;BME280;10510;47.942;9.442;2023-08-21T08:20:26;95249.19;;;35.91;100.00
11487;BME280;10510;47.942;9.442;2023-08-21T08:22:27;95251.22;;;35.94;100.00
11487;BME280;10510;47.942;9.442;2023-08-21T08:24:27;95251.16;;;35.82;100.00
11487;BME280;10510;47.942;9.442;2023-08-21T08:26:27;95255.69;;;35.78;100.00
11487;BME280;10510;47.942;9.442;2023-08-21T08:28:28;95244.88;;;35.90;100.00
11487;BME280;10510;47.942;9.442;2023-08-21T08:30:28;95248.91;;;35.84;100.00
11487;BME280;10510;47.942;9.442;2023-08-21T08:32:28;95251.63;;;35.54;100.00
11487;BME280;10510;47.942;9.442;2023-08-21T08:34:28;95252.88;;;35.27;100.00
11487;BME280;10510;47.942;9.442;2023-08-21T08:36:29;95259.91;;;35.19;100.00
11487;BME280;10510;47.942;9.442;2023-08-21T08:38:29;95249.06;;;35.19;100.00
11487;BME280;10510;47.942;9.442;2023-08-21T08:40:30;95245.44;;;34.98;100.00
11487;BME280;10510;47.942;9.442;2023-08-21T08:42:31;95246.75;;;34.83;100.00
11487;BME280;10510;47.942;9.442;2023-08-21T08:44:34;95251.75;;;34.55;100.00
11487;BME280;10510;47.942;9.442;2023-08-21T08:46:35;95254.59;;;34.24;100.00
11487;BME280;10510;47.942;9.442;2023-08-21T08:48:38;95257.28;;;34.15;100.00
11487;BME280;10510;47.942;9.442;2023-08-21T08:50:39;95247.94;;;33.64;100.00
11487;BME280;10510;47.942;9.442;2023-08-21T08:52:40;95244.91;;;33.17;100.00
11487;BME280;10510;47.942;9.442;2023-08-21T08:54:41;95250.09;;;33.05;100.00
11487;BME280;10510;47.942;9.442;2023-08-21T08:56:41;95255.03;;;33.02;100.00
11487;BME280;10510;47.942;9.442;2023-08-21T08:58:41;95245.69;;;32.86;100.00
11487;BME280;10510;47.942;9.442;2023-08-21T09:00:42;95251.22;;;33.04;100.00
11487;BME280;10510;47.942;9.442;2023-08-21T09:02:43;95251.22;;;33.43;100.00
11487;BME280;10510;47.942;9.442;2023-08-21T09:04:43;95251.94;;;33.66;100.00
11487;BME280;10510;47.942;9.442;2023-08-21T09:06:43;95247.22;;;33.89;100.00
11487;BME280;10510;47.942;9.442;2023-08-21T09:08:54;95246.09;;;33.99;100.00
11487;BME280;10510;47.942;9.442;2023-08-21T09:10:55;95240.38;;;34.01;100.00
11487;BME280;10510;47.942;9.442;2023-08-21T09:12:55;95245.16;;;33.95;100.00
11487;BME280;10510;47.942;9.442;2023-08-21T09:14:59;95237.94;;;33.82;100.00
11487;BME280;10510;47.942;9.442;2023-08-21T09:17:00;95239.22;;;33.76;100.00
11487;BME280;10510;47.942;9.442;2023-08-21T09:19:03;95242.28;;;33.91;100.00
11487;BME280;10510;47.942;9.442;2023-08-21T09:21:05;95236.38;;;33.89;100.00
11487;BME280;10510;47.942;9.442;2023-08-21T09:23:05;95241.47;;;33.91;100.00
11487;BME280;10510;47.942;9.442;2023-08-21T09:25:07;95241.13;;;33.75;100.00
11487;BME280;10510;47.942;9.442;2023-08-21T09:27:18;95228.75;;;33.43;100.00
11487;BME280;10510;47.942;9.442;2023-08-21T09:29:18;95235.28;;;33.02;100.00
11487;BME280;10510;47.942;9.442;2023-08-21T09:31:22;95237.81;;;32.98;100.00
11487;BME280;10510;47.942;9.442;2023-08-21T09:33:24;95228.69;;;33.25;100.00
11487;BME280;10510;47.942;9.442;2023-08-21T09:35:24;95236.72;;;33.39;100.00
11487;BME280;10510;47.942;9.442;2023-08-21T09:37:28;95224.69;;;33.63;100.00
11487;BME280;10510;47.942;9.442;2023-08-21T09:39:35;95236.38;;;33.98;100.00
11487;BME280;10510;47.942;9.442;2023-08-21T09:41:38;95235.28;;;34.08;100.00
11487;BME280;10510;47.942;9.442;2023-08-21T09:43:41;95230.81;;;34.21;100.00
11487;BME280;10510;47.942;9.442;2023-08-21T09:45:46;95227.00;;;34.48;100.00
11487;BME280;10510;47.942;9.442;2023-08-21T09:47:47;95227.94;;;34.69;100.00
11487;BME280;10510;47.942;9.442;2023-08-21T09:49:48;95221.06;;;34.72;100.00
11487;BME280;10510;47.942;9.442;2023-08-21T09:51:48;95221.47;;;34.91;100.00
11487;BME280;10510;47.942;9.442;2023-08-21T09:53:50;95220.81;;;35.03;100.00
11487;BME280;10510;47.942;9.442;2023-08-21T09:55:54;95216.88;;;34.92;100.00
11487;BME280;10510;47.942;9.442;2023-08-21T09:57:56;95226.66;;;34.75;100.00
11487;BME280;10510;47.942;9.442;2023-08-21T09:59:59;95226.66;;;34.75;100.00
11487;BME280;10510;47.942;9.442;2023-08-21T10:02:00;95228.44;;;34.45;100.00
11487;BME280;10510;47.942;9.442;2023-08-21T10:04:04;95216.81;;;34.27;100.00
11487;BME280;10510;47.942;9.442;2023-08-21T10:06:08;95220.47;;;34.14;100.00
11487;BME280;10510;47.942;9.442;2023-08-21T10:08:08;95221.22;;;33.88;100.00
11487;BME280;10510;47.942;9.442;2023-08-21T10:10:11;95221.34;;;33.66;100.00
11487;BME280;10510;47.942;9.442;2023-08-21T10:12:14;95220.72;;;33.69;100.00
11487;BME280;10510;47.942;9.442;2023-08-21T10:14:15;95216.75;;;33.84;100.00
11487;BME280;10510;47.942;9.442;2023-08-21T10:16:16;95210.38;;;33.71;100.00
11487;BME280;10510;47.942;9.442;2023-08-21T10:18:25;95209.13;;;33.86;100.00
11487;BME280;10510;47.942;9.442;2023-08-21T10:20:29;95215.38;;;34.04;100.00
11487;BME280;10510;47.942;9.442;2023-08-21T10:22:45;95210.38;;;33.80;100.00
11487;BME280;10510;47.942;9.442;2023-08-21T10:24:46;95207.34;;;33.81;100.00
11487;BME280;10510;47.942;9.442;2023-08-21T10:26:47;95212.63;;;33.86;100.00
11487;BME280;10510;47.942;9.442;2023-08-21T10:29:00;95210.69;;;33.87;100.00
11487;BME280;10510;47.942;9.442;2023-08-21T10:33:45;95199.91;;;34.13;100.00
11487;BME280;10510;47.942;9.442;2023-08-21T10:35:45;95202.28;;;34.14;100.00